createdAt,value
2023-03-29T00:00:20.649Z,29.72
2023-03-29T00:01:35.014Z,27.41
2023-03-29T00:02:21.691Z,27.67
2023-03-29T00:03:20.719Z,27.79
2023-03-29T00:04:20.722Z,28.88
2023-03-29T00:05:20.642Z,29.18
2023-03-29T00:06:20.641Z,30.93
2023-03-29T00:07:20.645Z,31.79
2023-03-29T00:08:20.644Z,28.63
2023-03-29T00:10:20.639Z,32.54
2023-03-29T00:11:20.642Z,27.25
2023-03-29T00:12:20.639Z,26.97
2023-03-29T00:13:20.649Z,27.31
2023-03-29T00:14:20.655Z,27.95
2023-03-29T00:15:20.671Z,28.23
2023-03-29T00:16:20.722Z,28.89
2023-03-29T00:17:20.668Z,27.94
2023-03-29T00:18:20.670Z,29.34
2023-03-29T00:19:20.654Z,29.58
2023-03-29T00:20:20.653Z,27.72
2023-03-29T00:24:20.637Z,26.35
2023-03-29T00:25:20.652Z,27.32
2023-03-29T00:27:20.634Z,30.36
2023-03-29T00:28:20.630Z,29.32
2023-03-29T00:30:20.627Z,29.95
2023-03-29T00:31:20.654Z,29.43
2023-03-29T00:35:20.677Z,29.32
2023-03-29T00:36:20.614Z,30.00
2023-03-29T00:37:20.595Z,29.96
2023-03-29T00:38:20.592Z,28.52
2023-03-29T00:40:20.593Z,28.30
2023-03-29T00:41:20.592Z,27.09
2023-03-29T00:42:20.578Z,29.51
2023-03-29T00:44:20.584Z,27.87
2023-03-29T00:47:20.578Z,27.43
2023-03-29T00:49:20.568Z,29.40
2023-03-29T00:50:20.595Z,27.16
2023-03-29T00:51:20.560Z,28.22
2023-03-29T00:52:20.560Z,26.68
2023-03-29T00:53:20.547Z,28.21
2023-03-29T00:54:20.575Z,29.38
2023-03-29T00:58:20.583Z,30.26
2023-03-29T00:59:20.556Z,25.52
2023-03-29T01:02:20.542Z,26.02
2023-03-29T01:03:20.671Z,25.35
2023-03-29T01:04:20.561Z,27.95
2023-03-29T01:05:20.540Z,33.24
2023-03-29T01:06:20.580Z,31.09
2023-03-29T01:09:20.560Z,28.82
2023-03-29T01:10:20.556Z,32.71
2023-03-29T01:12:20.575Z,29.77
2023-03-29T01:14:20.564Z,29.17
2023-03-29T01:15:20.573Z,32.92
2023-03-29T01:16:20.610Z,31.13
2023-03-29T01:17:20.581Z,30.81
2023-03-29T01:18:20.571Z,28.76
2023-03-29T01:19:20.568Z,28.82
2023-03-29T01:20:20.567Z,32.68
2023-03-29T01:23:20.563Z,28.66
2023-03-29T01:24:20.574Z,29.11
2023-03-29T01:25:20.590Z,29.47
2023-03-29T01:26:20.579Z,29.81
2023-03-29T01:27:20.582Z,29.33
2023-03-29T01:28:20.606Z,28.30
2023-03-29T01:29:20.580Z,31.48
2023-03-29T01:30:20.572Z,30.03
2023-03-29T01:31:20.633Z,32.43
2023-03-29T01:32:20.595Z,29.32
2023-03-29T01:35:20.614Z,27.91
2023-03-29T01:36:20.621Z,27.62
2023-03-29T01:39:20.571Z,28.78
2023-03-29T01:40:20.624Z,27.97
2023-03-29T01:41:20.568Z,25.91
2023-03-29T01:42:20.585Z,31.72
2023-03-29T01:44:20.578Z,28.38
2023-03-29T01:45:20.583Z,29.06
2023-03-29T01:46:20.603Z,25.32
2023-03-29T01:47:20.668Z,25.10
2023-03-29T01:48:20.567Z,26.68
2023-03-29T01:51:20.560Z,30.86
2023-03-29T01:52:20.567Z,28.58
2023-03-29T01:55:20.566Z,29.76
2023-03-29T01:56:20.550Z,28.70
2023-03-29T01:57:20.583Z,29.09
2023-03-29T02:01:20.588Z,28.34
2023-03-29T02:02:20.599Z,29.24
2023-03-29T02:05:20.530Z,31.31
2023-03-29T02:06:20.538Z,30.12
2023-03-29T02:07:20.545Z,28.05
2023-03-29T02:11:20.537Z,28.47
2023-03-29T02:12:20.540Z,27.27
2023-03-29T02:13:20.547Z,27.86
2023-03-29T02:15:20.542Z,30.38
2023-03-29T02:16:20.613Z,27.80
2023-03-29T02:19:20.533Z,28.99
2023-03-29T02:20:20.535Z,27.73
2023-03-29T02:21:20.557Z,29.84
2023-03-29T02:22:20.521Z,28.69
2023-03-29T02:23:20.522Z,29.36
2023-03-29T02:24:20.532Z,29.69
2023-03-29T02:27:20.549Z,29.52
2023-03-29T02:28:20.556Z,27.88
2023-03-29T02:31:20.604Z,28.78
2023-03-29T02:32:20.583Z,28.96
2023-03-29T02:33:20.574Z,29.56
2023-03-29T02:34:20.583Z,29.95
2023-03-29T02:39:20.582Z,28.81
2023-03-29T02:40:20.608Z,29.31
2023-03-29T02:41:20.599Z,27.56
2023-03-29T02:42:20.666Z,27.80
2023-03-29T02:43:20.589Z,28.19
2023-03-29T02:44:20.618Z,27.88
2023-03-29T02:45:20.594Z,27.71
2023-03-29T02:46:20.634Z,29.55
2023-03-29T02:48:20.632Z,25.97
2023-03-29T02:49:20.613Z,26.37
2023-03-29T02:50:20.638Z,30.73
2023-03-29T02:51:20.637Z,27.83
2023-03-29T02:52:20.644Z,27.05
2023-03-29T02:53:20.645Z,27.38
2023-03-29T02:55:20.646Z,28.21
2023-03-29T02:56:20.653Z,29.06
2023-03-29T02:59:20.673Z,30.08
2023-03-29T03:00:20.661Z,29.90
2023-03-29T03:01:20.784Z,31.73
2023-03-29T03:02:20.705Z,31.22
2023-03-29T03:03:20.774Z,28.61
2023-03-29T03:04:20.687Z,29.50
2023-03-29T03:05:20.664Z,28.80
2023-03-29T03:06:20.673Z,30.75
2023-03-29T03:07:20.670Z,30.08
2023-03-29T03:08:20.681Z,30.87
2023-03-29T03:09:20.699Z,30.25
2023-03-29T03:10:20.698Z,26.18
2023-03-29T03:12:20.672Z,28.62
2023-03-29T03:13:20.685Z,28.14
2023-03-29T03:14:20.678Z,27.89
2023-03-29T03:15:20.689Z,30.20
2023-03-29T03:16:20.730Z,30.98
2023-03-29T03:19:20.680Z,25.62
2023-03-29T03:20:20.688Z,29.13
2023-03-29T03:24:20.675Z,30.28
2023-03-29T03:26:20.675Z,27.65
2023-03-29T03:27:20.699Z,27.95
2023-03-29T03:28:20.693Z,26.62
2023-03-29T03:29:20.714Z,27.95
2023-03-29T03:30:20.700Z,28.02
2023-03-29T03:32:20.724Z,30.45
2023-03-29T03:33:20.714Z,27.83
2023-03-29T03:36:20.730Z,31.09
2023-03-29T03:40:20.788Z,27.87
2023-03-29T03:41:20.747Z,28.76
2023-03-29T03:42:20.748Z,29.18
2023-03-29T03:43:20.746Z,28.04
2023-03-29T03:44:20.767Z,28.84
2023-03-29T03:45:20.776Z,29.33
2023-03-29T03:46:20.787Z,30.79
2023-03-29T03:47:20.765Z,32.47
2023-03-29T03:48:20.775Z,30.77
2023-03-29T03:49:20.794Z,27.20
2023-03-29T03:50:20.808Z,31.37
2023-03-29T03:53:20.797Z,26.43
2023-03-29T03:54:20.807Z,27.08
2023-03-29T03:55:20.811Z,30.34
2023-03-29T03:57:20.854Z,28.25
2023-03-29T03:58:20.811Z,27.38
2023-03-29T03:59:20.808Z,29.98
2023-03-29T04:00:20.819Z,32.27
2023-03-29T04:01:20.851Z,30.74
2023-03-29T04:02:20.876Z,26.49
2023-03-29T04:06:20.828Z,29.42
2023-03-29T04:07:20.829Z,31.01
2023-03-29T04:08:20.827Z,27.80
2023-03-29T04:09:20.837Z,29.87
2023-03-29T04:10:20.867Z,25.61
2023-03-29T04:15:20.842Z,31.07
2023-03-29T04:16:20.892Z,31.68
2023-03-29T04:17:20.850Z,31.67
2023-03-29T04:18:20.964Z,28.24
2023-03-29T04:19:20.848Z,30.79
2023-03-29T04:20:20.863Z,29.93
2023-03-29T04:21:21.464Z,27.62
2023-03-29T04:24:20.892Z,30.45
2023-03-29T04:26:20.902Z,25.30
2023-03-29T04:27:20.898Z,30.82
2023-03-29T04:28:20.896Z,29.57
2023-03-29T04:29:20.907Z,29.54
2023-03-29T04:30:20.903Z,28.37
2023-03-29T04:31:20.939Z,27.27
2023-03-29T04:32:20.916Z,30.53
2023-03-29T04:33:20.921Z,29.47
2023-03-29T04:34:20.955Z,27.92
2023-03-29T04:37:20.944Z,29.07
2023-03-29T04:38:20.949Z,30.11
2023-03-29T04:39:20.954Z,30.79
2023-03-29T04:40:20.965Z,31.10
2023-03-29T04:41:20.968Z,31.19
2023-03-29T04:42:20.989Z,32.09
2023-03-29T04:43:21.002Z,30.37
2023-03-29T04:44:20.994Z,30.82
2023-03-29T04:45:21.067Z,28.40
2023-03-29T04:46:21.049Z,31.25
2023-03-29T04:47:21.007Z,31.99
2023-03-29T04:48:21.053Z,31.51
2023-03-29T04:49:21.045Z,29.79
2023-03-29T04:50:21.045Z,31.10
2023-03-29T04:51:21.067Z,32.49
2023-03-29T04:52:23.196Z,29.03
2023-03-29T04:53:21.080Z,32.59
2023-03-29T04:54:21.100Z,31.44
2023-03-29T04:55:21.133Z,31.57
2023-03-29T04:56:21.114Z,30.41
2023-03-29T04:57:21.147Z,28.96
2023-03-29T04:58:23.689Z,27.20
2023-03-29T04:59:21.126Z,27.58
2023-03-29T05:00:21.151Z,28.40
2023-03-29T05:01:21.180Z,28.96
2023-03-29T05:02:21.142Z,27.80
2023-03-29T05:03:21.170Z,30.21
2023-03-29T05:04:21.185Z,27.50
2023-03-29T05:05:21.178Z,25.87
2023-03-29T05:06:21.175Z,25.95
2023-03-29T05:07:21.172Z,26.07
2023-03-29T05:08:21.176Z,27.02
2023-03-29T05:09:21.186Z,25.00
2023-03-29T05:10:21.184Z,24.39
2023-03-29T05:11:21.211Z,26.01
2023-03-29T05:12:21.202Z,27.22
2023-03-29T05:13:21.217Z,25.32
2023-03-29T05:14:21.219Z,25.29
2023-03-29T05:15:21.274Z,25.87
2023-03-29T05:16:21.287Z,25.91
2023-03-29T05:17:21.255Z,22.76
2023-03-29T05:18:21.263Z,20.05
2023-03-29T05:19:21.274Z,19.81
2023-03-29T05:20:21.293Z,11.64
2023-03-29T05:21:21.293Z,27.07
2023-03-29T05:22:21.306Z,26.13
2023-03-29T05:24:21.325Z,26.49
2023-03-29T05:27:21.339Z,26.69
2023-03-29T05:28:21.344Z,27.77
2023-03-29T05:29:21.353Z,27.97
2023-03-29T05:30:21.357Z,28.10
2023-03-29T05:31:21.409Z,31.04
2023-03-29T05:35:21.392Z,49.23
2023-03-29T05:36:21.419Z,53.05
2023-03-29T05:37:21.418Z,58.49
2023-03-29T05:38:21.445Z,66.89
2023-03-29T05:39:21.493Z,74.48
2023-03-29T05:41:21.441Z,89.37
2023-03-29T05:42:21.446Z,93.98
2023-03-29T05:46:21.508Z,131.79
2023-03-29T05:47:21.444Z,139.04
2023-03-29T05:48:21.506Z,148.43
2023-03-29T05:50:21.484Z,163.39
2023-03-29T05:54:21.446Z,196.48
2023-03-29T05:55:21.792Z,197.59
2023-03-29T05:58:21.492Z,217.56
2023-03-29T06:01:21.433Z,232.48
2023-03-29T06:02:21.529Z,236.10
2023-03-29T06:03:22.086Z,243.50
2023-03-29T06:05:22.400Z,245.35
2023-03-29T06:07:21.410Z,251.34
2023-03-29T06:08:21.476Z,244.34
2023-03-29T06:11:21.453Z,267.64
2023-03-29T06:12:21.471Z,283.93
2023-03-29T06:15:21.440Z,250.01
2023-03-29T06:16:21.427Z,260.70
2023-03-29T06:17:21.443Z,370.35
2023-03-29T06:18:21.397Z,411.64
2023-03-29T06:19:21.528Z,325.73
2023-03-29T06:20:21.398Z,272.85
2023-03-29T06:21:21.404Z,236.23
2023-03-29T06:22:21.378Z,218.64
2023-03-29T06:23:21.385Z,207.87
2023-03-29T06:24:21.393Z,202.92
2023-03-29T06:27:21.390Z,196.74
2023-03-29T06:29:21.368Z,219.39
2023-03-29T06:30:21.374Z,211.32
2023-03-29T06:31:21.493Z,206.24
2023-03-29T06:32:21.364Z,204.23
2023-03-29T06:36:21.415Z,206.89
2023-03-29T06:37:22.294Z,208.66
2023-03-29T06:38:21.357Z,208.66
2023-03-29T06:39:21.411Z,208.40
2023-03-29T06:41:21.321Z,202.54
2023-03-29T06:42:21.911Z,201.70
2023-03-29T06:46:21.374Z,195.38
2023-03-29T06:47:21.303Z,193.54
2023-03-29T06:48:21.289Z,191.94
2023-03-29T06:50:21.258Z,188.97
2023-03-29T06:51:23.333Z,186.57
2023-03-29T06:52:21.322Z,185.50
2023-03-29T06:56:21.228Z,176.82
2023-03-29T06:59:21.203Z,191.37
2023-03-29T07:00:21.190Z,171.21
2023-03-29T07:02:21.190Z,161.64
2023-03-29T07:03:21.186Z,152.32
2023-03-29T07:04:21.213Z,144.80
2023-03-29T07:05:21.270Z,141.75
2023-03-29T07:09:21.154Z,123.55
2023-03-29T07:10:21.162Z,114.59
2023-03-29T07:13:21.169Z,107.52
2023-03-29T07:14:21.161Z,107.12
2023-03-29T07:15:21.159Z,105.89
2023-03-29T07:16:21.198Z,96.36
2023-03-29T07:17:21.341Z,94.19
2023-03-29T07:18:21.159Z,91.50
2023-03-29T07:19:21.147Z,88.03
2023-03-29T07:20:21.194Z,91.55
2023-03-29T07:24:21.219Z,79.38
2023-03-29T07:25:21.819Z,80.51
2023-03-29T07:26:28.920Z,79.57
2023-03-29T07:27:22.124Z,77.66
2023-03-29T07:28:21.109Z,69.71
2023-03-29T07:29:21.149Z,68.88
2023-03-29T07:30:21.279Z,69.33
2023-03-29T07:31:21.115Z,67.15
2023-03-29T07:33:21.247Z,66.89
2023-03-29T07:35:21.174Z,53.87
2023-03-29T07:38:21.120Z,37.35
2023-03-29T07:39:21.089Z,48.85
2023-03-29T07:40:21.127Z,61.34
2023-03-29T07:41:21.150Z,72.25
2023-03-29T07:44:21.093Z,70.76
2023-03-29T07:48:21.031Z,62.32
2023-03-29T07:49:22.126Z,64.17
2023-03-29T07:51:21.013Z,60.69
2023-03-29T07:52:21.028Z,57.04
2023-03-29T07:57:21.850Z,67.09
2023-03-29T07:58:20.950Z,64.57
2023-03-29T07:59:20.979Z,65.03
2023-03-29T08:00:21.434Z,69.71
2023-03-29T08:01:21.016Z,75.27
2023-03-29T08:02:21.045Z,78.79
2023-03-29T08:03:21.016Z,81.95
2023-03-29T08:06:20.884Z,80.51
2023-03-29T08:07:20.898Z,80.93
2023-03-29T08:08:21.002Z,69.66
2023-03-29T08:10:20.938Z,34.80
2023-03-29T08:11:20.894Z,0.00
2023-03-29T08:12:22.507Z,9.76
2023-03-29T08:13:20.866Z,18.61
2023-03-29T08:14:20.871Z,11.87
2023-03-29T08:15:20.906Z,9.31
2023-03-29T08:19:20.875Z,0.00
2023-03-29T08:20:20.887Z,0.00
2023-03-29T08:21:20.880Z,0.00
2023-03-29T08:22:20.881Z,0.00
2023-03-29T08:23:20.934Z,0.00
2023-03-29T08:24:21.189Z,0.00
2023-03-29T08:28:20.960Z,0.00
2023-03-29T08:29:20.965Z,0.00
2023-03-29T08:30:21.170Z,0.00
2023-03-29T08:32:20.976Z,32.43
2023-03-29T08:33:21.033Z,45.27
2023-03-29T08:34:20.971Z,33.82
2023-03-29T08:35:21.061Z,0.00
2023-03-29T08:40:21.084Z,0.00
2023-03-29T08:41:21.170Z,0.00
2023-03-29T08:43:21.242Z,0.00
2023-03-29T08:45:21.378Z,10.10
2023-03-29T08:47:21.331Z,24.89
2023-03-29T08:48:21.391Z,32.84
2023-03-29T08:49:21.376Z,44.65
2023-03-29T08:50:21.419Z,53.17
2023-03-29T08:53:21.497Z,58.89
2023-03-29T08:54:21.541Z,57.46
2023-03-29T08:56:21.568Z,57.31
2023-03-29T08:57:21.667Z,58.40
2023-03-29T08:58:21.671Z,62.57
2023-03-29T09:00:21.672Z,69.46
2023-03-29T09:01:21.730Z,71.11
2023-03-29T09:02:21.832Z,70.27
2023-03-29T09:03:21.936Z,65.26
2023-03-29T09:06:21.817Z,62.20
2023-03-29T09:07:23.443Z,57.72
2023-03-29T09:08:21.874Z,57.22
2023-03-29T09:09:21.985Z,58.01
2023-03-29T09:10:21.975Z,55.46
2023-03-29T09:12:21.981Z,50.91
2023-03-29T09:13:22.033Z,50.83
2023-03-29T09:14:22.037Z,49.30
2023-03-29T09:15:22.111Z,49.69
2023-03-29T09:16:22.160Z,49.52
2023-03-29T09:17:22.126Z,47.31
2023-03-29T09:18:22.181Z,47.55
2023-03-29T09:23:22.281Z,41.95
2023-03-29T09:24:22.289Z,38.33
2023-03-29T09:25:22.326Z,40.90
2023-03-29T09:26:22.365Z,41.93
2023-03-29T09:27:22.361Z,42.50
2023-03-29T09:28:22.377Z,45.09
2023-03-29T09:29:22.400Z,46.39
2023-03-29T09:30:22.556Z,44.57
2023-03-29T09:33:22.474Z,37.42
2023-03-29T09:34:22.541Z,37.76
2023-03-29T09:36:22.578Z,38.01
2023-03-29T09:37:22.645Z,38.02
2023-03-29T09:38:22.614Z,37.59
2023-03-29T09:40:22.659Z,47.98
2023-03-29T09:41:22.714Z,61.89
2023-03-29T09:42:22.756Z,83.79
2023-03-29T09:43:22.798Z,102.07
2023-03-29T09:44:30.706Z,117.12
2023-03-29T09:45:23.843Z,117.56
2023-03-29T09:46:23.101Z,120.92
2023-03-29T09:47:22.820Z,129.07
2023-03-29T09:48:22.846Z,143.73
2023-03-29T09:49:22.846Z,165.58
2023-03-29T09:52:23.389Z,180.77
2023-03-29T09:56:22.900Z,184.77
2023-03-29T09:57:22.965Z,178.21
2023-03-29T09:58:22.939Z,173.49
2023-03-29T10:01:22.962Z,171.28
2023-03-29T10:02:22.954Z,158.99
2023-03-29T10:03:22.949Z,155.42
2023-03-29T10:04:22.967Z,152.10
2023-03-29T10:06:22.968Z,152.36
2023-03-29T10:07:22.975Z,152.65
2023-03-29T10:08:23.004Z,155.67
2023-03-29T10:09:23.024Z,162.15
2023-03-29T10:13:22.998Z,178.35
2023-03-29T10:14:23.022Z,182.38
2023-03-29T10:15:29.582Z,187.45
2023-03-29T10:16:24.063Z,187.59
2023-03-29T10:17:23.169Z,188.38
2023-03-29T10:18:23.053Z,190.46
2023-03-29T10:19:23.069Z,194.01
2023-03-29T10:20:23.171Z,196.87
2023-03-29T10:21:23.080Z,196.84
2023-03-29T10:22:23.144Z,197.02
2023-03-29T10:23:23.095Z,195.95
2023-03-29T10:26:23.109Z,185.65
2023-03-29T10:27:23.264Z,173.78
2023-03-29T10:29:23.137Z,136.26
2023-03-29T10:30:23.171Z,129.22
2023-03-29T10:31:23.249Z,122.29
2023-03-29T10:32:23.361Z,122.94
2023-03-29T10:34:23.184Z,133.05
2023-03-29T10:35:23.250Z,142.46
2023-03-29T10:38:23.222Z,163.84
2023-03-29T10:39:23.231Z,166.94
2023-03-29T10:41:23.250Z,149.68
2023-03-29T10:42:23.942Z,145.59
2023-03-29T10:43:23.313Z,131.01
2023-03-29T10:44:23.261Z,119.84
2023-03-29T10:45:23.312Z,109.30
2023-03-29T10:46:23.308Z,99.08
2023-03-29T10:47:23.352Z,91.88
2023-03-29T10:48:23.368Z,86.29
2023-03-29T10:52:23.340Z,124.47
2023-03-29T10:54:23.351Z,137.85
2023-03-29T10:55:23.352Z,143.52
2023-03-29T10:56:23.355Z,150.03
2023-03-29T10:57:23.479Z,154.28
2023-03-29T10:58:23.392Z,158.05
2023-03-29T11:03:23.494Z,174.81
2023-03-29T11:04:23.402Z,177.55
2023-03-29T11:05:23.381Z,180.31
2023-03-29T11:06:23.391Z,182.33
2023-03-29T11:08:23.381Z,186.57
2023-03-29T11:09:23.364Z,187.68
2023-03-29T11:10:23.365Z,189.43
2023-03-29T11:12:23.352Z,188.26
2023-03-29T11:14:23.346Z,162.96
2023-03-29T11:15:23.396Z,151.03
2023-03-29T11:16:23.401Z,144.90
2023-03-29T11:17:23.505Z,133.68
2023-03-29T11:18:23.361Z,123.03
2023-03-29T11:20:23.353Z,111.73
2023-03-29T11:21:23.516Z,111.08
2023-03-29T11:23:23.370Z,108.29
2023-03-29T11:24:23.322Z,102.66
2023-03-29T11:25:23.337Z,104.05
2023-03-29T11:27:23.329Z,127.38
2023-03-29T11:28:23.360Z,136.95
2023-03-29T11:30:23.341Z,123.49
2023-03-29T11:32:23.347Z,146.83
2023-03-29T11:33:23.330Z,160.40
2023-03-29T11:35:23.643Z,182.81
2023-03-29T11:36:23.692Z,192.93
2023-03-29T11:37:23.334Z,199.49
2023-03-29T11:38:23.342Z,200.60
2023-03-29T11:39:23.333Z,202.91
2023-03-29T11:40:23.375Z,204.07
2023-03-29T11:41:23.354Z,204.13
2023-03-29T11:42:23.365Z,204.45
2023-03-29T11:43:23.358Z,204.78
2023-03-29T11:45:23.337Z,204.74
2023-03-29T11:46:23.360Z,204.77
2023-03-29T11:49:23.336Z,202.84
2023-03-29T11:51:23.339Z,200.98
2023-03-29T11:52:23.329Z,198.72
2023-03-29T11:53:23.348Z,197.96
2023-03-29T11:59:23.330Z,198.64
2023-03-29T12:00:23.350Z,198.90
2023-03-29T12:01:23.372Z,198.87
2023-03-29T12:02:23.407Z,199.27
2023-03-29T12:03:23.598Z,198.77
2023-03-29T12:04:23.382Z,199.24
2023-03-29T12:05:23.348Z,198.36
2023-03-29T12:10:23.370Z,198.53
2023-03-29T12:12:23.398Z,198.56
2023-03-29T12:13:23.360Z,199.30
2023-03-29T12:14:24.047Z,198.33
2023-03-29T12:15:23.343Z,198.34
2023-03-29T12:16:23.391Z,196.92
2023-03-29T12:17:23.397Z,197.14
2023-03-29T12:18:23.343Z,195.15
2023-03-29T12:19:23.372Z,194.72
2023-03-29T12:22:23.339Z,195.37
2023-03-29T12:23:23.342Z,194.24
2023-03-29T12:25:23.490Z,194.11
2023-03-29T12:26:23.333Z,195.02
2023-03-29T12:29:23.377Z,194.11
2023-03-29T12:30:23.343Z,194.12
2023-03-29T12:31:23.420Z,192.04
2023-03-29T12:32:23.365Z,192.78
2023-03-29T12:33:23.344Z,192.51
2023-03-29T12:34:23.356Z,192.81
2023-03-29T12:35:23.348Z,192.09
2023-03-29T12:36:23.351Z,191.35
2023-03-29T12:37:23.345Z,192.12
2023-03-29T12:38:23.361Z,192.08
2023-03-29T12:42:23.361Z,196.60
2023-03-29T12:43:23.360Z,197.88
2023-03-29T12:44:23.367Z,199.75
2023-03-29T12:45:23.364Z,201.79
2023-03-29T12:47:34.715Z,25.00
2023-03-29T12:48:34.636Z,25.00
2023-03-29T12:49:34.628Z,25.00
2023-03-29T12:50:34.593Z,25.00
2023-03-29T12:51:34.624Z,25.00
2023-03-29T12:52:34.574Z,25.00
2023-03-29T12:53:34.552Z,24.67
2023-03-29T12:54:34.513Z,26.65
2023-03-29T12:55:34.473Z,26.43
2023-03-29T12:56:34.471Z,26.84
2023-03-29T12:57:34.437Z,35.51
2023-03-29T12:58:34.410Z,38.88
2023-03-29T12:59:34.388Z,36.29
2023-03-29T13:00:34.343Z,48.13
2023-03-29T13:01:34.498Z,45.65
2023-03-29T13:02:34.388Z,43.34
2023-03-29T13:03:34.255Z,41.05
2023-03-29T13:04:34.248Z,42.13
2023-03-29T13:05:34.292Z,39.52
2023-03-29T13:06:34.190Z,32.69
2023-03-29T13:07:34.185Z,41.88
2023-03-29T13:08:34.149Z,39.24
2023-03-29T13:09:34.199Z,51.34
2023-03-29T13:10:34.117Z,48.02
2023-03-29T13:11:34.074Z,53.29
2023-03-29T13:12:34.055Z,45.86
2023-03-29T13:13:34.035Z,53.08
2023-03-29T13:14:33.997Z,61.57
2023-03-29T13:15:34.037Z,51.30
2023-03-29T13:16:34.129Z,49.63
2023-03-29T13:17:33.962Z,48.02
2023-03-29T13:18:33.937Z,46.46
2023-03-29T13:19:33.876Z,44.05
2023-03-29T13:20:33.838Z,42.26
2023-03-29T13:21:33.811Z,33.30
2023-03-29T13:22:33.780Z,29.09
2023-03-29T13:23:33.770Z,26.97
2023-03-29T13:24:33.736Z,28.12
2023-03-29T13:25:33.714Z,25.00
2023-03-29T13:26:33.670Z,25.00
2023-03-29T13:27:33.643Z,25.43
2023-03-29T13:28:33.629Z,25.03
2023-03-29T13:29:33.655Z,25.00
2023-03-29T13:30:33.684Z,26.69
2023-03-29T13:31:33.770Z,25.00
2023-03-29T13:32:33.773Z,25.90
2023-03-29T13:33:33.803Z,25.51
2023-03-29T13:34:33.746Z,25.52
2023-03-29T13:35:33.802Z,27.05
2023-03-29T13:36:33.790Z,27.70
2023-03-29T13:37:33.831Z,29.36
2023-03-29T13:38:33.865Z,27.37
2023-03-29T13:39:33.881Z,26.92
2023-03-29T13:40:33.950Z,25.00
2023-03-29T13:41:33.925Z,25.39
2023-03-29T13:42:33.955Z,25.66
2023-03-29T13:43:33.966Z,25.79
2023-03-29T13:44:33.975Z,27.55
2023-03-29T13:45:33.994Z,27.88
2023-03-29T13:46:34.027Z,25.48
2023-03-29T13:47:34.100Z,25.00
2023-03-29T13:48:34.084Z,29.00
2023-03-29T13:49:34.057Z,28.37
2023-03-29T13:50:34.075Z,32.47
2023-03-29T13:51:34.072Z,33.70
2023-03-29T13:52:34.089Z,29.74
2023-03-29T13:53:34.096Z,25.90
2023-03-29T13:54:34.128Z,25.25
2023-03-29T13:55:36.115Z,27.63
2023-03-29T13:56:34.131Z,25.19
2023-03-29T13:57:34.097Z,27.78
2023-03-29T13:58:34.090Z,31.15
2023-03-29T13:59:34.080Z,36.09
2023-03-29T14:00:34.072Z,33.88
2023-03-29T14:01:34.037Z,31.92
2023-03-29T14:02:34.052Z,39.26
2023-03-29T14:03:33.939Z,36.89
2023-03-29T14:04:33.929Z,37.24
2023-03-29T14:05:33.900Z,34.45
2023-03-29T14:06:33.877Z,30.43
2023-03-29T14:07:33.878Z,25.79
2023-03-29T14:08:35.906Z,25.00
2023-03-29T14:09:33.800Z,25.00
2023-03-29T14:10:33.784Z,28.74
2023-03-29T14:11:33.749Z,28.44
2023-03-29T14:12:33.758Z,28.95
2023-03-29T14:13:33.717Z,29.17
2023-03-29T14:14:33.672Z,29.04
2023-03-29T14:15:33.652Z,16.94
2023-03-29T14:16:33.685Z,17.64
2023-03-29T14:17:33.631Z,21.49
2023-03-29T14:18:33.587Z,29.94
2023-03-29T14:19:33.612Z,27.73
2023-03-29T14:20:33.548Z,31.09
2023-03-29T14:21:33.538Z,30.82
2023-03-29T14:22:33.521Z,28.77
2023-03-29T14:23:33.542Z,30.22
2023-03-29T14:24:33.563Z,36.34
2023-03-29T14:25:33.647Z,39.06
2023-03-29T14:26:33.639Z,37.65
2023-03-29T14:27:33.652Z,40.60
2023-03-29T14:28:33.710Z,37.70
2023-03-29T14:29:33.709Z,35.70
2023-03-29T14:30:33.748Z,35.78
2023-03-29T14:31:33.823Z,39.37
2023-03-29T14:32:33.856Z,36.72
2023-03-29T14:33:33.850Z,34.45
2023-03-29T14:34:33.879Z,39.68
2023-03-29T14:35:34.052Z,38.31
2023-03-29T14:36:34.182Z,34.49
2023-03-29T14:37:33.983Z,29.99
2023-03-29T14:38:34.020Z,30.30
2023-03-29T14:39:34.044Z,28.35
2023-03-29T14:40:34.100Z,30.57
2023-03-29T14:41:34.131Z,34.56
2023-03-29T14:42:34.152Z,30.86
2023-03-29T14:43:34.213Z,30.58
2023-03-29T14:44:34.262Z,27.98
2023-03-29T14:45:34.258Z,25.31
2023-03-29T14:46:34.336Z,26.11
2023-03-29T14:47:34.375Z,27.79
2023-03-29T14:48:34.320Z,27.81
2023-03-29T14:49:34.311Z,27.58
2023-03-29T14:50:34.366Z,27.39
2023-03-29T14:51:34.250Z,27.79
2023-03-29T14:52:34.239Z,34.07
2023-03-29T14:53:34.228Z,32.79
2023-03-29T14:54:34.225Z,27.44
2023-03-29T14:55:34.174Z,29.71
2023-03-29T14:56:34.145Z,31.37
2023-03-29T14:57:34.136Z,34.95
2023-03-29T14:58:34.173Z,37.86
2023-03-29T14:59:34.197Z,41.02
2023-03-29T15:00:34.237Z,37.65
2023-03-29T15:01:34.268Z,36.34
2023-03-29T15:02:34.359Z,35.24
2023-03-29T15:03:34.441Z,36.71
2023-03-29T15:04:34.369Z,42.10
2023-03-29T15:05:34.390Z,40.96
2023-03-29T15:06:34.421Z,40.65
2023-03-29T15:07:34.445Z,40.47
2023-03-29T15:08:34.491Z,44.00
2023-03-29T15:09:34.551Z,41.93
2023-03-29T15:10:34.567Z,46.70
2023-03-29T15:11:34.707Z,50.74
2023-03-29T15:12:34.642Z,54.88
2023-03-29T15:13:34.670Z,50.70
2023-03-29T15:14:34.705Z,51.09
2023-03-29T15:15:34.806Z,53.24
2023-03-29T15:16:34.854Z,51.79
2023-03-29T15:17:47.655Z,48.52
2023-03-29T15:18:35.951Z,48.83
2023-03-29T15:19:34.772Z,49.67
2023-03-29T15:20:34.744Z,50.04
2023-03-29T15:21:34.726Z,53.99
2023-03-29T15:22:34.698Z,59.37
2023-03-29T15:23:34.675Z,59.11
2023-03-29T15:24:34.649Z,59.31
2023-03-29T15:25:34.613Z,61.69
2023-03-29T15:26:34.643Z,63.26
2023-03-29T15:27:34.694Z,60.19
2023-03-29T15:28:34.761Z,60.69
2023-03-29T15:29:35.097Z,65.03
2023-03-29T15:30:34.812Z,61.72
2023-03-29T15:31:34.920Z,63.70
2023-03-29T15:32:34.907Z,60.56
2023-03-29T15:33:34.949Z,60.75
2023-03-29T15:34:34.816Z,60.89
2023-03-29T15:35:34.819Z,62.09
2023-03-29T15:36:34.758Z,63.55
2023-03-29T15:37:34.757Z,64.09
2023-03-29T15:38:43.235Z,63.18
2023-03-29T15:39:35.680Z,60.98
2023-03-29T15:40:34.701Z,62.28
2023-03-29T15:41:34.624Z,63.15
2023-03-29T15:42:34.603Z,65.64
2023-03-29T15:43:34.565Z,70.25
2023-03-29T15:44:34.548Z,70.99
2023-03-29T15:45:34.511Z,71.74
2023-03-29T15:46:34.512Z,71.79
2023-03-29T15:47:34.578Z,76.43
2023-03-29T15:48:34.537Z,75.64
2023-03-29T15:49:34.583Z,73.42
2023-03-29T15:50:34.604Z,78.78
2023-03-29T15:51:34.637Z,84.65
2023-03-29T15:52:34.679Z,95.16
2023-03-29T15:53:34.768Z,93.92
2023-03-29T15:54:34.743Z,95.91
2023-03-29T15:55:34.779Z,102.69
2023-03-29T15:56:34.821Z,102.93
2023-03-29T15:57:34.902Z,108.22
2023-03-29T15:58:34.921Z,109.78
2023-03-29T15:59:34.934Z,115.02
2023-03-29T16:00:34.993Z,116.16
2023-03-29T16:01:34.942Z,116.43
2023-03-29T16:02:34.956Z,116.65
2023-03-29T16:03:34.876Z,119.30
2023-03-29T16:04:34.855Z,122.60
2023-03-29T16:05:34.820Z,129.14
2023-03-29T16:06:34.794Z,131.62
2023-03-29T16:07:34.754Z,131.46
2023-03-29T16:08:34.734Z,133.60
2023-03-29T16:09:34.750Z,138.02
2023-03-29T16:10:34.786Z,139.44
2023-03-29T16:11:34.825Z,141.78
2023-03-29T16:12:34.857Z,143.45
2023-03-29T16:13:34.893Z,147.35
2023-03-29T16:14:34.926Z,142.13
2023-03-29T16:15:34.979Z,144.88
2023-03-29T16:16:35.042Z,146.90
2023-03-29T16:17:35.064Z,147.03
2023-03-29T16:18:34.955Z,147.94
2023-03-29T16:19:34.912Z,148.91
2023-03-29T16:20:34.880Z,151.61
2023-03-29T16:21:34.855Z,154.34
2023-03-29T16:22:34.824Z,154.99
2023-03-29T16:23:34.793Z,157.55
2023-03-29T16:24:34.766Z,158.18
2023-03-29T16:25:34.765Z,157.83
2023-03-29T16:26:34.764Z,159.76
2023-03-29T16:27:34.792Z,161.95
2023-03-29T16:28:34.828Z,162.27
2023-03-29T16:29:34.874Z,162.12
2023-03-29T16:30:34.890Z,164.73
2023-03-29T16:31:34.972Z,165.67
2023-03-29T16:32:34.971Z,165.99
2023-03-29T16:33:35.008Z,169.67
2023-03-29T16:34:35.046Z,170.78
2023-03-29T16:35:35.096Z,169.70
2023-03-29T16:36:35.092Z,171.82
2023-03-29T16:37:35.133Z,169.00
2023-03-29T16:38:35.187Z,172.24
2023-03-29T16:39:35.213Z,172.28
2023-03-29T16:40:35.249Z,172.74
2023-03-29T16:41:35.285Z,170.71
2023-03-29T16:42:35.330Z,173.58
2023-03-29T16:43:35.368Z,172.71